メインページ
METAR-TAF:

METAR-TAF

空港 :

レスブリッジ, アルバータ州, カナダ

緯度: 49-38N, 経度: 112-48W, 海抜: 929m

現時点の気象観測

当レポートは20分前の17:00(UTC)に作成
の風 2kt
気温 18°C
湿度 64%
気圧 1025 hPa
視程: 64.4km
高度3200ftの雲はほとんどない

METAR: CYQL 211700Z 18002KT 40SM FEW032 18/11 A3026 RMK CF1 CF TR SLP252 DENSITY ALT 3700FT

時間: 11:20 (17:20 UTC)

予報

当レポートは5時間42分前の11:38(UTC)に作成
予報は21日の 12時(UTC)から 21日の 24時(UTC)まで有効
西の風 6kt
視程: 10km
晴天
21日の 13時(UTC)から 21日の 15時(UTC)まで徐々に
変向風 2kt
高度2000ftの雲はほとんどない
21日の 1700時(UTC)から
東/北東の風 8kt
視程: 10km
高度4000ftの雲はほとんどない

TAF: CYQL 211138Z 2112/2124 26006KT P6SM SKC BECMG 2113/2115 VRB02KT FEW020 FM211700 07008KT P6SM FEW040 RMK FCST BASED ON AUTO OBS. NXT FCST BY 211800Z

4,000以上の空港の気象観測と天気予報(METAR報とTAF報)

利用可能な観測所は地図上に黄色い丸と赤い丸で示す。

丸の上にカーソルを重ねると観測所名を参照できる。

次にクリックすると気象観測と天気予報を参照できる。

マップの切り替え:黒色「×」印の緑ボタンをクリックして拡大、「-」印の緑ボタンをクリックして縮小、緑色の三角印をクリックして隣りの地図に切り替え


METAR-TAF: